createdAt,value
2019-03-23T00:02:20.545Z,8.80
2019-03-23T00:04:48.368Z,8.90
2019-03-23T00:07:17.176Z,8.80
2019-03-23T00:09:45.019Z,8.70
2019-03-23T00:12:12.931Z,8.70
2019-03-23T00:14:41.012Z,8.60
2019-03-23T00:17:10.484Z,8.60
2019-03-23T00:19:38.447Z,8.60
2019-03-23T00:22:06.850Z,8.70
2019-03-23T00:24:34.785Z,8.50
2019-03-23T00:27:03.263Z,8.50
2019-03-23T00:29:31.352Z,8.50
2019-03-23T00:31:59.744Z,8.60
2019-03-23T00:34:27.539Z,8.60
2019-03-23T00:36:55.760Z,8.40
2019-03-23T00:39:23.701Z,8.20
2019-03-23T00:41:51.274Z,8.20
2019-03-23T00:44:19.518Z,8.30
2019-03-23T00:46:48.358Z,8.50
2019-03-23T00:49:16.204Z,8.30
2019-03-23T00:51:44.448Z,8.10
2019-03-23T00:54:12.224Z,7.90
2019-03-23T00:56:40.638Z,7.90
2019-03-23T00:59:09.837Z,7.90
2019-03-23T01:01:37.447Z,8.00
2019-03-23T01:04:06.727Z,8.00
2019-03-23T01:06:34.889Z,7.90
2019-03-23T01:09:04.235Z,7.80
2019-03-23T01:11:32.147Z,7.70
2019-03-23T01:14:00.038Z,7.80
2019-03-23T01:16:28.059Z,7.80
2019-03-23T01:18:56.009Z,7.90
2019-03-23T01:21:23.905Z,7.90
2019-03-23T01:23:51.792Z,7.90
2019-03-23T01:26:19.429Z,7.80
2019-03-23T01:28:46.903Z,7.80
2019-03-23T01:31:14.648Z,7.80
2019-03-23T01:33:42.151Z,7.80
2019-03-23T01:36:11.100Z,7.70
2019-03-23T01:38:38.615Z,7.70
2019-03-23T01:41:07.484Z,7.70
2019-03-23T01:43:35.557Z,7.80
2019-03-23T01:46:04.643Z,7.80
2019-03-23T01:48:32.717Z,7.80
2019-03-23T01:51:00.646Z,7.70
2019-03-23T01:53:28.216Z,7.70
2019-03-23T01:55:56.110Z,7.70
2019-03-23T01:58:24.188Z,7.70
2019-03-23T02:00:51.908Z,7.80
2019-03-23T02:03:19.567Z,7.80
2019-03-23T02:05:47.903Z,7.70
2019-03-23T02:08:16.058Z,7.80
2019-03-23T02:10:43.810Z,7.80
2019-03-23T02:13:12.283Z,7.70
2019-03-23T02:15:40.291Z,7.60
2019-03-23T02:18:08.785Z,7.50
2019-03-23T02:20:36.941Z,7.50
2019-03-23T02:23:04.677Z,7.50
2019-03-23T02:25:32.677Z,7.50
2019-03-23T02:28:00.455Z,7.50
2019-03-23T02:30:28.145Z,7.40
2019-03-23T02:32:55.740Z,7.40
2019-03-23T02:35:23.504Z,7.40
2019-03-23T02:37:51.616Z,7.40
2019-03-23T02:40:19.409Z,7.50
2019-03-23T02:42:47.142Z,7.50
2019-03-23T02:45:14.906Z,7.40
2019-03-23T02:47:42.404Z,7.40
2019-03-23T02:50:11.036Z,7.40
2019-03-23T02:52:39.001Z,7.40
2019-03-23T02:55:07.214Z,7.40
2019-03-23T02:57:35.004Z,7.40
2019-03-23T03:00:03.991Z,7.40
2019-03-23T03:02:33.645Z,7.50
2019-03-23T03:05:01.584Z,7.40
2019-03-23T03:07:41.137Z,7.50
2019-03-23T03:09:58.866Z,7.50
2019-03-23T03:12:26.613Z,7.50
2019-03-23T03:14:54.193Z,7.50
2019-03-23T03:17:21.993Z,7.50
2019-03-23T03:19:50.215Z,7.30
2019-03-23T03:22:17.767Z,7.20
2019-03-23T03:24:45.456Z,7.20
2019-03-23T03:27:13.504Z,7.30
2019-03-23T03:29:42.000Z,7.20
2019-03-23T03:32:10.643Z,7.00
2019-03-23T03:34:38.579Z,6.70
2019-03-23T03:37:06.613Z,6.40
2019-03-23T03:39:34.067Z,6.20
2019-03-23T03:42:02.409Z,6.10
2019-03-23T03:44:30.546Z,5.90
2019-03-23T03:46:58.747Z,5.90
2019-03-23T03:49:26.227Z,6.10
2019-03-23T03:51:53.756Z,6.10
2019-03-23T03:54:22.845Z,6.10
2019-03-23T03:56:50.271Z,6.10
2019-03-23T03:59:17.751Z,5.90
2019-03-23T04:01:46.341Z,5.80
2019-03-23T04:04:15.857Z,6.00
2019-03-23T04:06:43.310Z,6.00
2019-03-23T04:09:11.602Z,5.90
2019-03-23T04:11:40.172Z,5.90
2019-03-23T04:14:07.726Z,5.80
2019-03-23T04:16:36.341Z,5.50
2019-03-23T04:19:03.853Z,5.50
2019-03-23T04:21:31.748Z,5.70
2019-03-23T04:24:00.050Z,5.80
2019-03-23T04:26:28.300Z,5.70
2019-03-23T04:28:55.816Z,5.70
2019-03-23T04:31:23.248Z,5.70
2019-03-23T04:33:50.715Z,5.70
2019-03-23T04:36:18.648Z,5.70
2019-03-23T04:38:46.173Z,5.70
2019-03-23T04:41:15.118Z,5.70
2019-03-23T04:43:42.645Z,5.70
2019-03-23T04:46:11.270Z,5.60
2019-03-23T04:48:38.885Z,5.50
2019-03-23T04:51:06.485Z,5.60
2019-03-23T04:53:34.229Z,5.60
2019-03-23T04:56:01.790Z,5.60
2019-03-23T04:58:29.583Z,5.50
2019-03-23T05:00:58.271Z,5.50
2019-03-23T05:03:26.205Z,5.40
2019-03-23T05:05:53.671Z,5.40
2019-03-23T05:08:29.182Z,5.30
2019-03-23T05:10:52.068Z,5.40
2019-03-23T05:13:19.823Z,5.40
2019-03-23T05:15:47.919Z,5.50
2019-03-23T05:18:17.315Z,5.60
2019-03-23T05:20:45.235Z,5.40
2019-03-23T05:23:13.955Z,5.40
2019-03-23T05:25:42.579Z,5.40
2019-03-23T05:28:10.748Z,5.50
2019-03-23T05:30:38.755Z,5.40
2019-03-23T05:33:06.867Z,5.30
2019-03-23T05:35:35.628Z,5.40
2019-03-23T05:38:03.405Z,5.40
2019-03-23T05:40:30.882Z,5.50
2019-03-23T05:42:59.361Z,5.50
2019-03-23T05:45:28.018Z,5.50
2019-03-23T05:47:55.805Z,5.60
2019-03-23T05:50:23.441Z,5.70
2019-03-23T05:52:51.620Z,5.70
2019-03-23T05:55:20.407Z,5.70
2019-03-23T05:57:47.878Z,5.70
2019-03-23T06:00:19.586Z,5.80
2019-03-23T06:02:47.266Z,5.90
2019-03-23T06:05:16.465Z,5.90
2019-03-23T06:07:44.218Z,5.90
2019-03-23T06:10:13.274Z,6.00
2019-03-23T06:12:42.202Z,6.00
2019-03-23T06:15:10.421Z,6.10
2019-03-23T06:17:38.213Z,6.20
2019-03-23T06:20:06.635Z,6.30
2019-03-23T06:22:34.663Z,6.40
2019-03-23T06:25:02.614Z,6.60
2019-03-23T06:27:30.139Z,6.70
2019-03-23T06:29:57.706Z,6.80
2019-03-23T06:32:26.120Z,6.80
2019-03-23T06:34:53.991Z,6.70
2019-03-23T06:37:22.163Z,6.80
2019-03-23T06:39:50.173Z,7.00
2019-03-23T06:42:18.475Z,6.90
2019-03-23T06:44:46.224Z,7.00
2019-03-23T06:47:16.716Z,7.10
2019-03-23T06:49:44.464Z,7.20
2019-03-23T06:52:14.413Z,7.30
2019-03-23T06:54:42.475Z,7.40
2019-03-23T06:57:10.075Z,7.40
2019-03-23T06:59:37.612Z,7.40
2019-03-23T07:02:05.410Z,7.50
2019-03-23T07:04:33.375Z,7.50
2019-03-23T07:07:02.091Z,7.60
2019-03-23T07:09:29.531Z,7.70
2019-03-23T07:11:58.363Z,7.80
2019-03-23T07:14:26.419Z,7.90
2019-03-23T07:16:54.259Z,7.90
2019-03-23T07:19:21.914Z,8.10
2019-03-23T07:21:49.799Z,8.30
2019-03-23T07:24:19.158Z,8.50
2019-03-23T07:26:46.855Z,8.70
2019-03-23T07:29:16.358Z,8.90
2019-03-23T07:31:44.021Z,9.10
2019-03-23T07:34:11.885Z,9.40
2019-03-23T07:36:39.675Z,9.80
2019-03-23T07:39:07.286Z,10.00
2019-03-23T07:41:34.980Z,10.30
2019-03-23T07:44:02.763Z,10.50
2019-03-23T07:46:30.543Z,10.70
2019-03-23T07:48:59.307Z,10.80
2019-03-23T07:51:26.920Z,11.00
2019-03-23T07:53:54.392Z,11.40
2019-03-23T07:56:23.128Z,11.60
2019-03-23T07:58:51.095Z,11.80
2019-03-23T08:01:19.579Z,12.20
2019-03-23T08:03:47.505Z,12.60
2019-03-23T08:06:16.370Z,12.80
2019-03-23T08:08:45.948Z,13.10
2019-03-23T08:11:13.753Z,13.40
2019-03-23T08:13:42.349Z,13.60
2019-03-23T08:16:10.389Z,13.80
2019-03-23T08:18:38.486Z,14.10
2019-03-23T08:21:06.417Z,14.20
2019-03-23T08:23:37.808Z,14.30
2019-03-23T08:26:05.718Z,14.20
2019-03-23T08:28:33.591Z,14.20
2019-03-23T08:31:01.340Z,14.20
2019-03-23T08:33:29.039Z,13.80
2019-03-23T08:35:56.544Z,13.70
2019-03-23T08:38:24.554Z,13.60
2019-03-23T08:40:52.264Z,13.80
2019-03-23T08:43:20.488Z,14.10
2019-03-23T08:45:48.069Z,14.10
2019-03-23T08:48:16.270Z,14.40
2019-03-23T08:50:44.249Z,14.60
2019-03-23T08:53:11.687Z,14.60
2019-03-23T08:55:39.171Z,14.70
2019-03-23T08:58:06.756Z,14.70
2019-03-23T09:00:34.675Z,14.50
2019-03-23T09:03:03.830Z,14.40
2019-03-23T09:05:31.811Z,14.30
2019-03-23T09:07:59.416Z,14.40
2019-03-23T09:10:26.940Z,14.60
2019-03-23T09:12:54.792Z,14.70
2019-03-23T09:15:22.344Z,14.90
2019-03-23T09:17:50.027Z,15.00
2019-03-23T09:20:18.963Z,15.20
2019-03-23T09:22:46.731Z,15.10
2019-03-23T09:25:14.645Z,15.00
2019-03-23T09:27:42.551Z,14.90
2019-03-23T09:30:10.494Z,15.00
2019-03-23T09:32:38.156Z,14.90
2019-03-23T09:35:06.383Z,15.00
2019-03-23T09:37:38.094Z,15.20
2019-03-23T09:40:10.788Z,15.20
2019-03-23T09:42:34.128Z,15.50
2019-03-23T09:45:02.043Z,15.60
2019-03-23T09:47:29.872Z,15.80
2019-03-23T09:49:57.682Z,15.80
2019-03-23T09:52:25.150Z,16.00
2019-03-23T09:54:52.922Z,16.30
2019-03-23T09:57:20.694Z,16.60
2019-03-23T09:59:49.211Z,16.70
2019-03-23T10:02:17.897Z,16.90
2019-03-23T10:04:46.101Z,17.10
2019-03-23T10:07:13.528Z,17.50
2019-03-23T10:09:40.995Z,17.40
2019-03-23T10:12:08.719Z,17.50
2019-03-23T10:14:36.538Z,17.60
2019-03-23T10:17:04.289Z,17.70
2019-03-23T10:19:32.219Z,17.80
2019-03-23T10:21:59.667Z,17.90
2019-03-23T10:24:27.131Z,17.80
2019-03-23T10:26:55.071Z,17.80
2019-03-23T10:29:23.120Z,17.90
2019-03-23T10:31:50.663Z,18.00
2019-03-23T10:34:19.450Z,18.10
2019-03-23T10:36:47.495Z,18.20
2019-03-23T10:39:16.300Z,18.20
2019-03-23T10:41:44.359Z,18.30
2019-03-23T10:44:12.119Z,18.20
2019-03-23T10:46:40.581Z,18.20
2019-03-23T10:49:09.921Z,18.30
2019-03-23T10:51:37.987Z,18.40
2019-03-23T10:54:05.836Z,18.30
2019-03-23T10:56:34.731Z,18.30
2019-03-23T10:59:02.903Z,18.10
2019-03-23T11:01:30.783Z,18.20
2019-03-23T11:03:58.486Z,18.10
2019-03-23T11:06:26.591Z,18.10
2019-03-23T11:08:54.124Z,18.00
2019-03-23T11:11:22.174Z,18.00
2019-03-23T11:13:50.037Z,18.10
2019-03-23T11:16:18.416Z,18.30
2019-03-23T11:18:46.055Z,18.20
2019-03-23T11:21:13.513Z,18.20
2019-03-23T11:23:41.158Z,18.20
2019-03-23T11:26:08.837Z,18.10
2019-03-23T11:28:36.321Z,18.10
2019-03-23T11:31:03.856Z,18.20
2019-03-23T11:33:31.715Z,18.20
2019-03-23T11:36:00.007Z,18.20
2019-03-23T11:38:27.869Z,18.30
2019-03-23T11:40:55.831Z,18.40
2019-03-23T11:43:23.512Z,18.40
2019-03-23T11:45:51.045Z,18.50
2019-03-23T11:48:19.049Z,18.50
2019-03-23T11:50:46.776Z,18.60
2019-03-23T11:53:14.762Z,18.60
2019-03-23T11:55:42.302Z,18.60
2019-03-23T11:58:09.852Z,18.70
2019-03-23T12:00:37.909Z,18.80
2019-03-23T12:03:05.759Z,18.90
2019-03-23T12:05:33.683Z,19.00
2019-03-23T12:08:02.078Z,19.00
2019-03-23T12:10:30.407Z,19.00
2019-03-23T12:12:58.425Z,19.20
2019-03-23T12:15:26.787Z,19.40
2019-03-23T12:17:54.492Z,19.60
2019-03-23T12:20:22.943Z,19.70
2019-03-23T12:22:50.947Z,19.90
2019-03-23T12:25:19.214Z,20.00
2019-03-23T12:27:47.967Z,19.90
2019-03-23T12:30:16.053Z,19.80
2019-03-23T12:32:43.895Z,19.90
2019-03-23T12:35:11.453Z,20.00
2019-03-23T12:37:39.177Z,20.20
2019-03-23T12:40:07.377Z,20.30
2019-03-23T12:42:35.394Z,20.40
2019-03-23T12:45:04.215Z,20.40
2019-03-23T12:47:31.999Z,20.40
2019-03-23T12:49:59.535Z,20.50
2019-03-23T12:52:27.779Z,20.40
2019-03-23T12:54:55.379Z,20.50
2019-03-23T12:57:23.720Z,20.50
2019-03-23T12:59:51.991Z,20.50
2019-03-23T13:02:20.598Z,20.50
2019-03-23T13:04:48.484Z,20.50
2019-03-23T13:07:17.023Z,20.50
2019-03-23T13:09:45.099Z,20.50
2019-03-23T13:12:12.533Z,20.50
2019-03-23T13:14:41.895Z,20.50
2019-03-23T13:17:10.128Z,20.50
2019-03-23T13:19:37.893Z,20.60
2019-03-23T13:22:05.382Z,20.60
2019-03-23T13:24:32.831Z,20.60
2019-03-23T13:27:00.875Z,20.60
2019-03-23T13:29:28.811Z,20.60
2019-03-23T13:31:56.719Z,20.60
2019-03-23T13:34:24.987Z,20.60
2019-03-23T13:36:52.762Z,20.60
2019-03-23T13:39:20.737Z,20.50
2019-03-23T13:41:50.515Z,20.50
2019-03-23T13:44:18.364Z,20.50
2019-03-23T13:46:45.927Z,20.50
2019-03-23T13:49:14.159Z,20.40
2019-03-23T13:51:41.592Z,20.30
2019-03-23T13:54:09.082Z,20.30
2019-03-23T13:56:37.339Z,20.30
2019-03-23T13:59:05.207Z,20.20
2019-03-23T14:01:32.747Z,20.10
2019-03-23T14:04:01.344Z,20.20
2019-03-23T14:06:28.966Z,20.10
2019-03-23T14:08:56.869Z,20.10
2019-03-23T14:11:24.742Z,19.90
2019-03-23T14:13:52.384Z,19.80
2019-03-23T14:16:20.382Z,19.80
2019-03-23T14:18:48.354Z,19.70
2019-03-23T14:21:16.151Z,19.50
2019-03-23T14:23:43.963Z,19.50
2019-03-23T14:26:12.044Z,19.30
2019-03-23T14:28:39.824Z,19.40
2019-03-23T14:31:07.385Z,19.50
2019-03-23T14:33:35.165Z,19.40
2019-03-23T14:36:02.831Z,19.30
2019-03-23T14:38:30.706Z,19.40
2019-03-23T14:41:35.310Z,19.40
2019-03-23T14:44:03.190Z,19.40
2019-03-23T14:46:31.172Z,19.30
2019-03-23T14:49:01.786Z,19.30
2019-03-23T14:51:28.790Z,19.20
2019-03-23T14:53:56.675Z,19.20
2019-03-23T14:56:25.508Z,19.00
2019-03-23T14:58:53.315Z,19.00
2019-03-23T15:01:23.237Z,19.00
2019-03-23T15:03:51.079Z,18.90
2019-03-23T15:06:19.387Z,18.90
2019-03-23T15:08:47.464Z,18.90
2019-03-23T15:11:15.531Z,18.90
2019-03-23T15:13:43.131Z,18.80
2019-03-23T15:16:10.963Z,18.90
2019-03-23T15:18:38.824Z,18.80
2019-03-23T15:21:07.209Z,18.80
2019-03-23T15:23:35.071Z,18.80
2019-03-23T15:26:03.043Z,18.70
2019-03-23T15:28:32.114Z,18.50
2019-03-23T15:30:59.668Z,18.40
2019-03-23T15:33:28.187Z,18.30
2019-03-23T15:35:55.825Z,18.10
2019-03-23T15:38:25.788Z,18.10
2019-03-23T15:40:53.892Z,17.90
2019-03-23T15:43:21.692Z,17.80
2019-03-23T15:45:49.230Z,17.70
2019-03-23T15:48:16.923Z,17.60
2019-03-23T15:50:44.792Z,17.40
2019-03-23T15:53:13.039Z,17.20
2019-03-23T15:55:41.756Z,17.00
2019-03-23T15:58:10.853Z,16.80
2019-03-23T16:00:38.623Z,16.60
2019-03-23T16:03:06.423Z,16.40
2019-03-23T16:05:34.082Z,16.10
2019-03-23T16:08:02.428Z,16.00
2019-03-23T16:10:30.473Z,15.80
2019-03-23T16:12:58.039Z,15.60
2019-03-23T16:15:26.442Z,15.40
2019-03-23T16:17:54.797Z,15.30
2019-03-23T16:20:23.843Z,15.20
2019-03-23T16:22:51.965Z,15.10
2019-03-23T16:25:19.876Z,15.00
2019-03-23T16:27:47.634Z,14.80
2019-03-23T16:30:19.871Z,14.80
2019-03-23T16:32:47.817Z,14.80
2019-03-23T16:35:15.263Z,14.60
2019-03-23T16:37:43.479Z,14.60
2019-03-23T16:40:11.980Z,14.50
2019-03-23T16:42:45.287Z,14.50
2019-03-23T16:45:09.954Z,14.40
2019-03-23T16:47:37.916Z,14.40
2019-03-23T16:50:07.595Z,14.30
2019-03-23T16:52:36.336Z,14.10
2019-03-23T16:55:05.371Z,14.10
2019-03-23T16:57:33.666Z,14.10
2019-03-23T17:00:01.682Z,14.00
2019-03-23T17:02:29.544Z,13.90
2019-03-23T17:04:57.427Z,13.80
2019-03-23T17:07:25.716Z,13.80
2019-03-23T17:09:53.859Z,13.70
2019-03-23T17:12:23.032Z,13.60
2019-03-23T17:14:50.809Z,13.40
2019-03-23T17:17:18.567Z,13.40
2019-03-23T17:19:46.874Z,13.40
2019-03-23T17:22:14.467Z,13.30
2019-03-23T17:24:43.511Z,13.20
2019-03-23T17:27:11.292Z,13.10
2019-03-23T17:29:39.228Z,13.00
2019-03-23T17:32:06.920Z,12.90
2019-03-23T17:34:34.971Z,12.80
2019-03-23T17:37:02.713Z,12.80
2019-03-23T17:39:30.801Z,12.70
2019-03-23T17:41:58.537Z,12.70
2019-03-23T17:44:28.601Z,12.60
2019-03-23T17:46:56.234Z,12.60
2019-03-23T17:49:23.721Z,12.50
2019-03-23T17:51:51.876Z,12.40
2019-03-23T17:54:20.831Z,12.30
2019-03-23T17:56:48.505Z,12.20
2019-03-23T17:59:16.203Z,12.20
2019-03-23T18:01:43.976Z,12.20
2019-03-23T18:04:12.084Z,12.20
2019-03-23T18:06:40.218Z,12.10
2019-03-23T18:09:08.218Z,12.00
2019-03-23T18:11:35.896Z,11.90
2019-03-23T18:14:03.679Z,11.90
2019-03-23T18:16:31.647Z,11.80
2019-03-23T18:18:59.447Z,11.80
2019-03-23T18:21:28.616Z,11.60
2019-03-23T18:23:56.446Z,11.50
2019-03-23T18:26:24.517Z,11.50
2019-03-23T18:28:52.617Z,11.40
2019-03-23T18:31:21.506Z,11.30
2019-03-23T18:33:49.723Z,11.30
2019-03-23T18:36:17.583Z,11.30
2019-03-23T18:38:45.155Z,11.20
2019-03-23T18:41:13.527Z,11.20
2019-03-23T18:43:41.304Z,11.10
2019-03-23T18:46:09.303Z,11.00
2019-03-23T18:48:37.272Z,10.90
2019-03-23T18:51:05.145Z,10.90
2019-03-23T18:53:32.755Z,11.00
2019-03-23T18:56:01.181Z,11.00
2019-03-23T18:58:30.212Z,11.00
2019-03-23T19:00:58.348Z,10.90
2019-03-23T19:03:25.942Z,10.80
2019-03-23T19:05:54.359Z,10.70
2019-03-23T19:08:22.073Z,10.70
2019-03-23T19:10:50.394Z,10.60
2019-03-23T19:13:18.165Z,10.60
2019-03-23T19:15:45.615Z,10.50
2019-03-23T19:18:13.116Z,10.50
2019-03-23T19:20:40.802Z,10.40
2019-03-23T19:23:08.763Z,10.40
2019-03-23T19:25:36.859Z,10.30
2019-03-23T19:28:51.887Z,10.20
2019-03-23T19:31:21.958Z,10.30
2019-03-23T19:33:50.144Z,10.20
2019-03-23T19:36:17.953Z,10.10
2019-03-23T19:38:45.781Z,10.10
2019-03-23T19:41:13.951Z,10.10
2019-03-23T19:43:49.051Z,10.00
2019-03-23T19:46:10.857Z,9.90
2019-03-23T19:48:38.889Z,9.90
2019-03-23T19:51:06.935Z,9.80
2019-03-23T19:53:34.368Z,9.80
2019-03-23T19:56:02.326Z,9.80
2019-03-23T19:58:31.318Z,9.90
2019-03-23T20:00:59.157Z,9.80
2019-03-23T20:03:27.343Z,9.80
2019-03-23T20:05:55.175Z,9.80
2019-03-23T20:08:24.603Z,9.80
2019-03-23T20:10:53.899Z,9.70
2019-03-23T20:13:21.585Z,9.70
2019-03-23T20:15:49.439Z,9.70
2019-03-23T20:18:17.343Z,9.60
2019-03-23T20:20:45.375Z,9.60
2019-03-23T20:23:13.002Z,9.60
2019-03-23T20:25:41.197Z,9.60
2019-03-23T20:28:08.623Z,9.60
2019-03-23T20:30:37.096Z,9.60
2019-03-23T20:33:05.797Z,9.60
2019-03-23T20:35:33.822Z,9.60
2019-03-23T20:38:01.321Z,9.50
2019-03-23T20:40:30.234Z,9.70
2019-03-23T20:42:57.856Z,9.70
2019-03-23T20:45:28.050Z,9.60
2019-03-23T20:47:55.831Z,9.70
2019-03-23T20:50:23.485Z,9.70
2019-03-23T20:52:51.320Z,9.70
2019-03-23T20:55:29.658Z,9.60
2019-03-23T20:57:57.575Z,9.60
2019-03-23T21:00:25.123Z,9.50
2019-03-23T21:02:53.439Z,9.50
2019-03-23T21:05:21.024Z,9.50
2019-03-23T21:07:49.192Z,9.50
2019-03-23T21:10:17.019Z,9.40
2019-03-23T21:12:44.863Z,9.30
2019-03-23T21:15:13.028Z,9.30
2019-03-23T21:17:50.725Z,9.30
2019-03-23T21:20:11.079Z,9.20
2019-03-23T21:22:38.947Z,9.20
2019-03-23T21:25:07.535Z,9.20
2019-03-23T21:27:35.398Z,9.10
2019-03-23T21:30:04.531Z,9.10
2019-03-23T21:32:33.299Z,9.10
2019-03-23T21:35:01.469Z,9.10
2019-03-23T21:37:29.199Z,9.20
2019-03-23T21:39:57.367Z,9.10
2019-03-23T21:42:25.166Z,9.10
2019-03-23T21:44:52.760Z,9.00
2019-03-23T21:47:20.839Z,8.90
2019-03-23T21:49:48.439Z,9.00
2019-03-23T21:52:16.163Z,9.00
2019-03-23T21:54:43.765Z,8.90
2019-03-23T21:57:11.643Z,8.90
2019-03-23T21:59:39.426Z,8.90
2019-03-23T22:02:07.066Z,8.90
2019-03-23T22:04:36.296Z,8.80
2019-03-23T22:07:03.945Z,8.80
2019-03-23T22:09:33.328Z,8.90
2019-03-23T22:12:02.020Z,8.80
2019-03-23T22:14:40.990Z,8.70
2019-03-23T22:17:00.091Z,8.70
2019-03-23T22:19:27.869Z,8.70
2019-03-23T22:21:55.937Z,8.70
2019-03-23T22:24:24.096Z,8.70
2019-03-23T22:26:51.801Z,8.60
2019-03-23T22:29:20.389Z,8.60
2019-03-23T22:31:48.861Z,8.60
2019-03-23T22:34:16.603Z,8.60
2019-03-23T22:36:44.646Z,8.60
2019-03-23T22:39:12.550Z,8.60
2019-03-23T22:41:40.003Z,8.60
2019-03-23T22:44:07.863Z,8.50
2019-03-23T22:46:36.443Z,8.50
2019-03-23T22:49:04.217Z,8.50
2019-03-23T22:51:32.727Z,8.50
2019-03-23T22:54:00.967Z,8.50
2019-03-23T22:56:28.439Z,8.40
2019-03-23T22:58:56.707Z,8.40
2019-03-23T23:01:24.545Z,8.50
2019-03-23T23:03:52.491Z,8.40
2019-03-23T23:06:20.083Z,8.40
2019-03-23T23:08:47.768Z,8.30
2019-03-23T23:11:16.641Z,8.30
2019-03-23T23:13:44.138Z,8.30
2019-03-23T23:16:11.683Z,8.40
2019-03-23T23:18:39.575Z,8.40
2019-03-23T23:21:07.291Z,8.30
2019-03-23T23:23:35.717Z,8.30
2019-03-23T23:26:03.823Z,8.20
2019-03-23T23:28:31.658Z,8.20
2019-03-23T23:30:59.435Z,8.10
2019-03-23T23:33:27.020Z,8.20
2019-03-23T23:35:54.565Z,8.20
2019-03-23T23:38:22.026Z,8.20
2019-03-23T23:40:49.694Z,8.30
2019-03-23T23:43:17.196Z,8.30
2019-03-23T23:45:44.728Z,8.20
2019-03-23T23:48:12.652Z,8.20
2019-03-23T23:50:41.604Z,8.10
2019-03-23T23:53:09.279Z,8.10
2019-03-23T23:55:37.928Z,8.10
2019-03-23T23:58:06.272Z,8.10
